CAL503 RCTP-ZSPD
Flight info
| Callsign | CAL503 |
|---|---|
| Flight time | 1h 5m |
| Altitude | 35000 |
| Route | PIANO1A PIANO L3 VIOLA R596 SULEM/K0930S1040 R596 DST/K0928S1070 B221 SHZ W58 XSY |
| Aircraft | B77W/H-SDE1E2E3FGHIJ2J3J4J5M1RWXY/LB1D1 |
Departure
| Time | 2026-05-05 01:34 |
|---|---|
| Airport | Taiwan Taoyuan International Airport (RCTP) |
Arrival
| Time | 2026-05-05 02:39 |
|---|---|
| Airport | Shanghai Pudong International Airport (ZSPD) |
| Time | Latitude | Longitude | Altitude | Speed | Heading |
|---|---|---|---|---|---|
| 2026-05-05 01:16 | 25.07599 | 121.23440 | 106 ft | 0 kts | 319° |
| 2026-05-05 01:23 | 25.07591 | 121.23447 | 107 ft | 3 kts | 319° |
| 2026-05-05 01:24 | 25.07576 | 121.23461 | 104 ft | 3 kts | 319° |
| 2026-05-05 01:24 | 25.07561 | 121.23476 | 104 ft | 3 kts | 318° |
| 2026-05-05 01:24 | 25.07547 | 121.23491 | 104 ft | 3 kts | 307° |
| 2026-05-05 01:24 | 25.07536 | 121.23510 | 104 ft | 3 kts | 291° |
| 2026-05-05 01:25 | 25.07531 | 121.23530 | 103 ft | 3 kts | 268° |
| 2026-05-05 01:25 | 25.07534 | 121.23550 | 103 ft | 2 kts | 235° |
| 2026-05-05 01:25 | 25.07537 | 121.23555 | 104 ft | 8 kts | 229° |
| 2026-05-05 01:25 | 25.07538 | 121.23555 | 104 ft | 0 kts | 229° |
| 2026-05-05 01:27 | 25.07537 | 121.23555 | 105 ft | 0 kts | 229° |
| 2026-05-05 01:28 | 25.07514 | 121.23525 | 108 ft | 17 kts | 229° |
| 2026-05-05 01:28 | 25.07437 | 121.23426 | 107 ft | 12 kts | 229° |
| 2026-05-05 01:28 | 25.07363 | 121.23330 | 108 ft | 17 kts | 229° |
| 2026-05-05 01:28 | 25.07286 | 121.23231 | 108 ft | 12 kts | 229° |
| 2026-05-05 01:29 | 25.07220 | 121.23191 | 107 ft | 13 kts | 172° |
| 2026-05-05 01:29 | 25.07140 | 121.23241 | 106 ft | 11 kts | 138° |
| 2026-05-05 01:29 | 25.07070 | 121.23267 | 106 ft | 9 kts | 197° |
| 2026-05-05 01:29 | 25.07010 | 121.23209 | 107 ft | 16 kts | 227° |
| 2026-05-05 01:30 | 25.06932 | 121.23110 | 106 ft | 17 kts | 229° |
| 2026-05-05 01:30 | 25.06837 | 121.22991 | 106 ft | 18 kts | 229° |
| 2026-05-05 01:30 | 25.06757 | 121.22889 | 105 ft | 19 kts | 229° |
| 2026-05-05 01:30 | 25.06685 | 121.22798 | 106 ft | 14 kts | 229° |
| 2026-05-05 01:31 | 25.06607 | 121.22699 | 106 ft | 20 kts | 229° |
| 2026-05-05 01:31 | 25.06510 | 121.22577 | 106 ft | 21 kts | 229° |
| 2026-05-05 01:31 | 25.06424 | 121.22468 | 106 ft | 16 kts | 229° |
| 2026-05-05 01:31 | 25.06357 | 121.22383 | 106 ft | 7 kts | 229° |
| 2026-05-05 01:32 | 25.06305 | 121.22317 | 107 ft | 12 kts | 229° |
| 2026-05-05 01:32 | 25.06249 | 121.22258 | 107 ft | 10 kts | 208° |
| 2026-05-05 01:32 | 25.06202 | 121.22261 | 105 ft | 3 kts | 154° |
| 2026-05-05 01:32 | 25.06149 | 121.22304 | 105 ft | 7 kts | 139° |
| 2026-05-05 01:33 | 25.06108 | 121.22349 | 103 ft | 6 kts | 119° |
| 2026-05-05 01:33 | 25.06121 | 121.22402 | 104 ft | 7 kts | 53° |
| 2026-05-05 01:33 | 25.06134 | 121.22418 | 102 ft | 0 kts | 48° |
| 2026-05-05 01:33 | 25.06177 | 121.22471 | 101 ft | 34 kts | 49° |
| 2026-05-05 01:34 | 25.06537 | 121.22931 | 100 ft | 122 kts | 49° |
| 2026-05-05 01:34 | 25.07262 | 121.23836 | 122 ft | 187 kts | 50° |
| 2026-05-05 01:34 | 25.08143 | 121.24935 | 889 ft | 189 kts | 50° |
| 2026-05-05 01:34 | 25.08989 | 121.26036 | 1856 ft | 189 kts | 53° |
| 2026-05-05 01:35 | 25.09874 | 121.27222 | 2269 ft | 218 kts | 53° |
| 2026-05-05 01:35 | 25.10916 | 121.28616 | 2604 ft | 247 kts | 53° |
| 2026-05-05 01:35 | 25.12108 | 121.30043 | 3368 ft | 261 kts | 38° |
| 2026-05-05 01:35 | 25.13794 | 121.30845 | 4301 ft | 267 kts | 15° |
| 2026-05-05 01:36 | 25.15505 | 121.31719 | 5371 ft | 281 kts | 33° |
| 2026-05-05 01:36 | 25.17079 | 121.33028 | 6503 ft | 288 kts | 37° |
| 2026-05-05 01:36 | 25.18720 | 121.34410 | 7321 ft | 301 kts | 36° |
| 2026-05-05 01:36 | 25.20419 | 121.35815 | 8286 ft | 309 kts | 34° |
| 2026-05-05 01:37 | 25.22169 | 121.37233 | 9296 ft | 314 kts | 33° |
| 2026-05-05 01:37 | 25.23960 | 121.38654 | 10273 ft | 319 kts | 33° |
| 2026-05-05 01:37 | 25.25824 | 121.40102 | 10883 ft | 339 kts | 32° |
| 2026-05-05 01:37 | 25.27847 | 121.41650 | 11093 ft | 369 kts | 32° |
| 2026-05-05 01:38 | 25.30051 | 121.43324 | 11417 ft | 400 kts | 32° |
| 2026-05-05 01:38 | 25.32395 | 121.45101 | 12146 ft | 414 kts | 32° |
| 2026-05-05 01:38 | 25.34799 | 121.46924 | 13043 ft | 422 kts | 32° |
| 2026-05-05 01:38 | 25.37243 | 121.48776 | 13958 ft | 429 kts | 32° |
| 2026-05-05 01:39 | 25.39726 | 121.50655 | 14817 ft | 435 kts | 31° |
| 2026-05-05 01:39 | 25.42233 | 121.52553 | 15716 ft | 439 kts | 31° |
| 2026-05-05 01:39 | 25.44776 | 121.54479 | 16527 ft | 447 kts | 31° |
| 2026-05-05 01:39 | 25.47365 | 121.56438 | 17351 ft | 455 kts | 31° |
| 2026-05-05 01:40 | 25.49966 | 121.58406 | 18178 ft | 462 kts | 31° |
| 2026-05-05 01:40 | 25.52632 | 121.60427 | 18975 ft | 466 kts | 31° |
| 2026-05-05 01:40 | 25.55315 | 121.62463 | 19756 ft | 469 kts | 31° |
| 2026-05-05 01:40 | 25.58019 | 121.64515 | 20505 ft | 474 kts | 31° |
| 2026-05-05 01:41 | 25.60747 | 121.66594 | 21563 ft | 478 kts | 30° |
| 2026-05-05 01:41 | 25.63506 | 121.68723 | 22450 ft | 488 kts | 31° |
| 2026-05-05 01:41 | 25.66323 | 121.70863 | 23449 ft | 493 kts | 31° |
| 2026-05-05 01:41 | 25.69187 | 121.73020 | 24183 ft | 501 kts | 30° |
| 2026-05-05 01:42 | 25.72103 | 121.75208 | 24809 ft | 509 kts | 30° |
| 2026-05-05 01:42 | 25.75054 | 121.77455 | 25307 ft | 520 kts | 31° |
| 2026-05-05 01:42 | 25.78093 | 121.79692 | 25707 ft | 527 kts | 25° |
| 2026-05-05 01:42 | 25.81426 | 121.81278 | 26273 ft | 517 kts | 9° |
| 2026-05-05 01:43 | 25.84929 | 121.81953 | 26902 ft | 506 kts | 356° |
| 2026-05-05 01:43 | 25.88371 | 121.81897 | 27472 ft | 496 kts | 345° |
| 2026-05-05 01:43 | 25.91776 | 121.81333 | 27975 ft | 497 kts | 343° |
| 2026-05-05 01:43 | 25.95222 | 121.80779 | 28451 ft | 503 kts | 343° |
| 2026-05-05 01:44 | 25.98720 | 121.80254 | 28924 ft | 509 kts | 345° |
| 2026-05-05 01:44 | 26.02246 | 121.79750 | 29576 ft | 511 kts | 346° |
| 2026-05-05 01:44 | 26.05785 | 121.79261 | 30145 ft | 513 kts | 345° |
| 2026-05-05 01:44 | 26.09334 | 121.78773 | 30581 ft | 514 kts | 345° |
| 2026-05-05 01:45 | 26.12884 | 121.78253 | 31078 ft | 511 kts | 342° |
| 2026-05-05 01:45 | 26.16308 | 121.77332 | 31572 ft | 500 kts | 334° |
| 2026-05-05 01:45 | 26.19528 | 121.75953 | 32161 ft | 489 kts | 327° |
| 2026-05-05 01:45 | 26.22529 | 121.74270 | 32767 ft | 477 kts | 320° |
| 2026-05-05 01:46 | 26.25312 | 121.72307 | 33318 ft | 471 kts | 318° |
| 2026-05-05 01:46 | 26.28010 | 121.70343 | 33857 ft | 469 kts | 317° |
| 2026-05-05 01:46 | 26.30730 | 121.68349 | 34340 ft | 466 kts | 317° |
| 2026-05-05 01:46 | 26.33440 | 121.66367 | 34751 ft | 465 kts | 317° |
| 2026-05-05 01:47 | 26.36149 | 121.64394 | 35092 ft | 466 kts | 317° |
| 2026-05-05 01:47 | 26.38877 | 121.62412 | 35097 ft | 469 kts | 317° |
| 2026-05-05 01:47 | 26.44340 | 121.58470 | 35101 ft | 465 kts | 318° |
| 2026-05-05 01:48 | 26.49759 | 121.54570 | 35117 ft | 463 kts | 318° |
| 2026-05-05 01:48 | 26.55165 | 121.50669 | 35123 ft | 463 kts | 317° |
| 2026-05-05 01:49 | 26.60578 | 121.46756 | 35128 ft | 464 kts | 317° |
| 2026-05-05 01:49 | 26.66004 | 121.42828 | 35123 ft | 465 kts | 317° |
| 2026-05-05 01:50 | 26.71441 | 121.38890 | 35133 ft | 466 kts | 317° |
| 2026-05-05 01:50 | 26.76851 | 121.34968 | 35125 ft | 467 kts | 317° |
| 2026-05-05 01:51 | 26.82305 | 121.31011 | 35128 ft | 467 kts | 317° |
| 2026-05-05 01:51 | 26.87761 | 121.27046 | 35130 ft | 467 kts | 317° |
| 2026-05-05 01:52 | 26.93215 | 121.23078 | 35143 ft | 468 kts | 317° |
| 2026-05-05 01:52 | 26.98673 | 121.19103 | 35139 ft | 467 kts | 317° |
| 2026-05-05 01:53 | 27.04120 | 121.15131 | 35130 ft | 466 kts | 317° |
| 2026-05-05 01:53 | 27.09553 | 121.11164 | 35139 ft | 465 kts | 317° |
| 2026-05-05 01:54 | 27.14939 | 121.07227 | 35142 ft | 464 kts | 317° |
| 2026-05-05 01:54 | 27.20350 | 121.03266 | 35136 ft | 464 kts | 317° |
| 2026-05-05 01:55 | 27.25760 | 120.99302 | 35148 ft | 465 kts | 317° |
| 2026-05-05 01:55 | 27.31173 | 120.95330 | 35161 ft | 464 kts | 317° |
| 2026-05-05 01:56 | 27.36582 | 120.91357 | 35142 ft | 464 kts | 317° |
| 2026-05-05 01:56 | 27.41989 | 120.87382 | 35141 ft | 464 kts | 317° |
| 2026-05-05 01:57 | 27.47394 | 120.83403 | 35145 ft | 464 kts | 317° |
| 2026-05-05 01:57 | 27.52758 | 120.79449 | 35144 ft | 463 kts | 317° |
| 2026-05-05 01:58 | 27.58155 | 120.75465 | 35144 ft | 463 kts | 317° |
| 2026-05-05 01:58 | 27.63552 | 120.71476 | 35150 ft | 464 kts | 317° |
| 2026-05-05 01:59 | 27.68947 | 120.67485 | 35154 ft | 464 kts | 317° |
| 2026-05-05 01:59 | 27.74853 | 120.64225 | 35155 ft | 490 kts | 334° |
| 2026-05-05 02:00 | 27.78196 | 120.63469 | 35157 ft | 504 kts | 343° |
| 2026-05-05 02:00 | 27.81764 | 120.63368 | 35151 ft | 520 kts | 354° |
| 2026-05-05 02:00 | 27.89008 | 120.64190 | 35160 ft | 523 kts | 356° |
| 2026-05-05 02:01 | 27.96261 | 120.65000 | 35153 ft | 522 kts | 355° |
| 2026-05-05 02:01 | 28.02277 | 120.65558 | 35159 ft | 522 kts | 355° |
| 2026-05-05 02:02 | 28.10695 | 120.66360 | 35170 ft | 523 kts | 355° |
| 2026-05-05 02:02 | 28.17953 | 120.67085 | 35162 ft | 523 kts | 355° |
| 2026-05-05 02:03 | 28.23983 | 120.67685 | 35157 ft | 523 kts | 355° |
| 2026-05-05 02:03 | 28.31232 | 120.68403 | 35148 ft | 523 kts | 355° |
| 2026-05-05 02:04 | 28.38486 | 120.69122 | 35143 ft | 524 kts | 355° |
| 2026-05-05 02:04 | 28.45751 | 120.69839 | 35141 ft | 524 kts | 355° |
| 2026-05-05 02:05 | 28.53015 | 120.70574 | 35137 ft | 523 kts | 355° |
| 2026-05-05 02:05 | 28.60267 | 120.71303 | 35151 ft | 523 kts | 355° |
| 2026-05-05 02:06 | 28.67476 | 120.72027 | 35145 ft | 522 kts | 355° |
| 2026-05-05 02:06 | 28.74702 | 120.72780 | 35138 ft | 522 kts | 355° |
| 2026-05-05 02:07 | 28.81940 | 120.73572 | 35168 ft | 522 kts | 355° |
| 2026-05-05 02:07 | 28.89187 | 120.74348 | 35143 ft | 522 kts | 355° |
| 2026-05-05 02:08 | 28.96443 | 120.75094 | 35118 ft | 523 kts | 355° |
| 2026-05-05 02:08 | 29.03686 | 120.75837 | 35135 ft | 523 kts | 355° |
| 2026-05-05 02:09 | 29.10951 | 120.76584 | 35131 ft | 523 kts | 355° |
| 2026-05-05 02:09 | 29.18154 | 120.77338 | 35120 ft | 522 kts | 355° |
| 2026-05-05 02:10 | 29.25389 | 120.78091 | 35116 ft | 522 kts | 355° |
| 2026-05-05 02:10 | 29.32632 | 120.78843 | 35144 ft | 522 kts | 355° |
| 2026-05-05 02:11 | 29.39887 | 120.79599 | 35118 ft | 523 kts | 355° |
| 2026-05-05 02:11 | 29.47129 | 120.80354 | 35108 ft | 522 kts | 355° |
| 2026-05-05 02:12 | 29.57916 | 120.82254 | 35108 ft | 547 kts | 17° |
| 2026-05-05 02:12 | 29.61219 | 120.84540 | 35113 ft | 563 kts | 34° |
| 2026-05-05 02:13 | 29.63937 | 120.87828 | 35100 ft | 574 kts | 52° |
| 2026-05-05 02:13 | 29.68220 | 120.95604 | 35100 ft | 576 kts | 56° |
| 2026-05-05 02:14 | 29.72459 | 121.03419 | 35094 ft | 576 kts | 54° |
| 2026-05-05 02:14 | 29.76828 | 121.11120 | 35112 ft | 574 kts | 54° |
| 2026-05-05 02:15 | 29.81324 | 121.18692 | 35067 ft | 568 kts | 48° |
| 2026-05-05 02:15 | 29.83871 | 121.22092 | 34807 ft | 555 kts | 41° |
| 2026-05-05 02:15 | 29.86617 | 121.25176 | 34211 ft | 548 kts | 37° |
| 2026-05-05 02:15 | 29.89496 | 121.27995 | 33116 ft | 552 kts | 32° |
| 2026-05-05 02:16 | 29.92642 | 121.30558 | 31995 ft | 554 kts | 27° |
| 2026-05-05 02:16 | 29.95890 | 121.33015 | 30893 ft | 560 kts | 27° |
| 2026-05-05 02:16 | 29.99166 | 121.35492 | 29844 ft | 563 kts | 28° |
| 2026-05-05 02:16 | 30.02418 | 121.37978 | 29098 ft | 556 kts | 28° |
| 2026-05-05 02:17 | 30.05609 | 121.40449 | 28584 ft | 545 kts | 29° |
| 2026-05-05 02:17 | 30.08718 | 121.42871 | 28089 ft | 535 kts | 29° |
| 2026-05-05 02:17 | 30.11740 | 121.45233 | 27548 ft | 527 kts | 29° |
| 2026-05-05 02:17 | 30.14790 | 121.47612 | 27101 ft | 517 kts | 30° |
| 2026-05-05 02:18 | 30.17708 | 121.49885 | 26606 ft | 509 kts | 30° |
| 2026-05-05 02:18 | 30.20627 | 121.52160 | 26045 ft | 502 kts | 30° |
| 2026-05-05 02:18 | 30.23513 | 121.54411 | 25404 ft | 498 kts | 30° |
| 2026-05-05 02:18 | 30.26386 | 121.56613 | 24849 ft | 491 kts | 28° |
| 2026-05-05 02:19 | 30.29318 | 121.58564 | 24364 ft | 482 kts | 25° |
| 2026-05-05 02:19 | 30.32252 | 121.60370 | 23914 ft | 474 kts | 25° |
| 2026-05-05 02:19 | 30.35137 | 121.62174 | 23382 ft | 468 kts | 25° |
| 2026-05-05 02:19 | 30.37962 | 121.64007 | 22776 ft | 463 kts | 27° |
| 2026-05-05 02:20 | 30.40717 | 121.65916 | 22159 ft | 459 kts | 28° |
| 2026-05-05 02:20 | 30.43423 | 121.67848 | 21551 ft | 455 kts | 29° |
| 2026-05-05 02:20 | 30.46079 | 121.69751 | 21413 ft | 440 kts | 29° |
| 2026-05-05 02:20 | 30.48639 | 121.71574 | 21304 ft | 425 kts | 28° |
| 2026-05-05 02:21 | 30.51123 | 121.73328 | 21207 ft | 411 kts | 28° |
| 2026-05-05 02:21 | 30.53529 | 121.75020 | 21150 ft | 398 kts | 28° |
| 2026-05-05 02:21 | 30.55916 | 121.76568 | 20764 ft | 392 kts | 22° |
| 2026-05-05 02:21 | 30.58472 | 121.77769 | 19854 ft | 401 kts | 16° |
| 2026-05-05 02:22 | 30.61154 | 121.78641 | 18955 ft | 410 kts | 10° |
| 2026-05-05 02:22 | 30.63945 | 121.79362 | 18314 ft | 411 kts | 9° |
| 2026-05-05 02:22 | 30.66769 | 121.79809 | 17574 ft | 409 kts | 360° |
| 2026-05-05 02:22 | 30.69598 | 121.79660 | 16912 ft | 405 kts | 350° |
| 2026-05-05 02:23 | 30.72339 | 121.79048 | 16359 ft | 399 kts | 343° |
| 2026-05-05 02:23 | 30.75008 | 121.78235 | 15896 ft | 393 kts | 343° |
| 2026-05-05 02:23 | 30.77636 | 121.77455 | 15525 ft | 387 kts | 343° |
| 2026-05-05 02:23 | 30.80237 | 121.76693 | 15156 ft | 384 kts | 343° |
| 2026-05-05 02:24 | 30.82844 | 121.75933 | 14796 ft | 385 kts | 343° |
| 2026-05-05 02:24 | 30.85447 | 121.75176 | 14447 ft | 386 kts | 343° |
| 2026-05-05 02:24 | 30.88059 | 121.74419 | 14088 ft | 384 kts | 343° |
| 2026-05-05 02:24 | 30.90615 | 121.73679 | 13770 ft | 377 kts | 343° |
| 2026-05-05 02:25 | 30.93110 | 121.72956 | 13688 ft | 361 kts | 343° |
| 2026-05-05 02:25 | 30.95515 | 121.72260 | 13384 ft | 353 kts | 343° |
| 2026-05-05 02:25 | 30.97882 | 121.71572 | 12993 ft | 348 kts | 343° |
| 2026-05-05 02:25 | 31.00217 | 121.70893 | 12584 ft | 344 kts | 343° |
| 2026-05-05 02:26 | 31.02527 | 121.70223 | 12162 ft | 341 kts | 344° |
| 2026-05-05 02:26 | 31.04824 | 121.69552 | 11744 ft | 338 kts | 343° |
| 2026-05-05 02:26 | 31.07097 | 121.68888 | 11313 ft | 335 kts | 343° |
| 2026-05-05 02:26 | 31.09352 | 121.68233 | 10914 ft | 333 kts | 343° |
| 2026-05-05 02:27 | 31.11566 | 121.67589 | 10483 ft | 331 kts | 344° |
| 2026-05-05 02:27 | 31.13690 | 121.66951 | 9942 ft | 300 kts | 342° |
| 2026-05-05 02:27 | 31.15602 | 121.66262 | 9406 ft | 282 kts | 340° |
| 2026-05-05 02:27 | 31.17477 | 121.65533 | 8929 ft | 286 kts | 340° |
| 2026-05-05 02:28 | 31.19384 | 121.64790 | 8436 ft | 291 kts | 341° |
| 2026-05-05 02:28 | 31.21323 | 121.64043 | 7933 ft | 295 kts | 341° |
| 2026-05-05 02:28 | 31.23288 | 121.63291 | 7433 ft | 299 kts | 341° |
| 2026-05-05 02:28 | 31.25253 | 121.62539 | 6882 ft | 288 kts | 342° |
| 2026-05-05 02:29 | 31.27083 | 121.61841 | 6296 ft | 266 kts | 342° |
| 2026-05-05 02:29 | 31.28782 | 121.61195 | 5721 ft | 248 kts | 341° |
| 2026-05-05 02:29 | 31.30392 | 121.60587 | 5299 ft | 241 kts | 341° |
| 2026-05-05 02:29 | 31.31936 | 121.60001 | 5218 ft | 231 kts | 341° |
| 2026-05-05 02:30 | 31.33446 | 121.59430 | 5117 ft | 227 kts | 341° |
| 2026-05-05 02:30 | 31.34948 | 121.58856 | 5003 ft | 227 kts | 341° |
| 2026-05-05 02:30 | 31.36451 | 121.58285 | 4847 ft | 226 kts | 341° |
| 2026-05-05 02:30 | 31.37944 | 121.57714 | 4721 ft | 226 kts | 341° |
| 2026-05-05 02:31 | 31.39456 | 121.57360 | 4570 ft | 222 kts | 2° |
| 2026-05-05 02:31 | 31.40910 | 121.57945 | 4424 ft | 225 kts | 37° |
| 2026-05-05 02:31 | 31.41888 | 121.59354 | 4275 ft | 225 kts | 69° |
| 2026-05-05 02:31 | 31.41946 | 121.61125 | 4109 ft | 219 kts | 112° |
| 2026-05-05 02:32 | 31.41019 | 121.62476 | 3984 ft | 213 kts | 140° |
| 2026-05-05 02:32 | 31.39989 | 121.63723 | 3896 ft | 213 kts | 133° |
| 2026-05-05 02:32 | 31.39092 | 121.65109 | 3747 ft | 214 kts | 127° |
| 2026-05-05 02:32 | 31.38266 | 121.66565 | 3591 ft | 214 kts | 124° |
| 2026-05-05 02:33 | 31.37476 | 121.68047 | 3458 ft | 215 kts | 124° |
| 2026-05-05 02:33 | 31.36701 | 121.69545 | 3304 ft | 215 kts | 124° |
| 2026-05-05 02:33 | 31.35900 | 121.70987 | 3138 ft | 212 kts | 135° |
| 2026-05-05 02:33 | 31.34639 | 121.71739 | 2919 ft | 200 kts | 171° |
| 2026-05-05 02:34 | 31.33325 | 121.72065 | 2769 ft | 188 kts | 165° |
| 2026-05-05 02:34 | 31.32116 | 121.72511 | 2602 ft | 174 kts | 163° |
| 2026-05-05 02:34 | 31.31009 | 121.72934 | 2554 ft | 167 kts | 163° |
| 2026-05-05 02:34 | 31.29902 | 121.73356 | 2564 ft | 167 kts | 163° |
| 2026-05-05 02:35 | 31.28796 | 121.73777 | 2539 ft | 166 kts | 163° |
| 2026-05-05 02:35 | 31.27698 | 121.74193 | 2386 ft | 164 kts | 162° |
| 2026-05-05 02:35 | 31.26651 | 121.74592 | 2163 ft | 150 kts | 163° |
| 2026-05-05 02:35 | 31.25719 | 121.74947 | 1978 ft | 132 kts | 163° |
| 2026-05-05 02:36 | 31.24867 | 121.75271 | 1819 ft | 128 kts | 164° |
| 2026-05-05 02:36 | 31.24010 | 121.75595 | 1675 ft | 132 kts | 163° |
| 2026-05-05 02:36 | 31.23109 | 121.75914 | 1497 ft | 142 kts | 166° |
| 2026-05-05 02:36 | 31.22192 | 121.76315 | 1278 ft | 138 kts | 160° |
| 2026-05-05 02:37 | 31.21310 | 121.76635 | 1115 ft | 132 kts | 163° |
| 2026-05-05 02:37 | 31.20427 | 121.76960 | 885 ft | 132 kts | 162° |
| 2026-05-05 02:37 | 31.19560 | 121.77303 | 688 ft | 135 kts | 162° |
| 2026-05-05 02:37 | 31.18679 | 121.77650 | 527 ft | 132 kts | 162° |
| 2026-05-05 02:38 | 31.17779 | 121.77984 | 391 ft | 140 kts | 162° |
| 2026-05-05 02:38 | 31.16846 | 121.78332 | 217 ft | 142 kts | 162° |
| 2026-05-05 02:38 | 31.15923 | 121.78675 | 42 ft | 136 kts | 162° |
| 2026-05-05 02:38 | 31.15061 | 121.78999 | 29 ft | 115 kts | 162° |
| 2026-05-05 02:39 | 31.14444 | 121.79232 | 28 ft | 71 kts | 162° |
| 2026-05-05 02:39 | 31.14055 | 121.79380 | 27 ft | 51 kts | 161° |
| 2026-05-05 02:39 | 31.13837 | 121.79501 | 27 ft | 22 kts | 140° |
| 2026-05-05 02:39 | 31.13737 | 121.79611 | 27 ft | 18 kts | 133° |
| 2026-05-05 02:40 | 31.13717 | 121.79701 | 28 ft | 12 kts | 77° |
| 2026-05-05 02:40 | 31.13755 | 121.79792 | 28 ft | 13 kts | 40° |
| 2026-05-05 02:40 | 31.13849 | 121.79786 | 28 ft | 15 kts | 343° |
| 2026-05-05 02:40 | 31.13956 | 121.79745 | 28 ft | 17 kts | 341° |
| 2026-05-05 02:41 | 31.14078 | 121.79699 | 28 ft | 19 kts | 342° |
| 2026-05-05 02:41 | 31.14215 | 121.79648 | 28 ft | 22 kts | 342° |
| 2026-05-05 02:41 | 31.14356 | 121.79595 | 28 ft | 17 kts | 342° |
| 2026-05-05 02:41 | 31.14476 | 121.79549 | 28 ft | 19 kts | 342° |
| 2026-05-05 02:42 | 31.14611 | 121.79500 | 28 ft | 21 kts | 342° |
| 2026-05-05 02:42 | 31.14758 | 121.79444 | 28 ft | 23 kts | 342° |
| 2026-05-05 02:42 | 31.14911 | 121.79386 | 28 ft | 24 kts | 342° |
| 2026-05-05 02:42 | 31.15053 | 121.79332 | 28 ft | 18 kts | 342° |
| 2026-05-05 02:43 | 31.15140 | 121.79310 | 28 ft | 9 kts | 11° |
| 2026-05-05 02:43 | 31.15180 | 121.79363 | 28 ft | 10 kts | 68° |
| 2026-05-05 02:43 | 31.15205 | 121.79440 | 28 ft | 10 kts | 65° |
| 2026-05-05 02:43 | 31.15240 | 121.79514 | 28 ft | 10 kts | 67° |
| 2026-05-05 02:44 | 31.15258 | 121.79577 | 28 ft | 7 kts | 72° |
| 2026-05-05 02:44 | 31.15264 | 121.79601 | 28 ft | 1 kts | 72° |
| 2026-05-05 02:44 | 31.15265 | 121.79604 | 28 ft | 0 kts | 72° |